createdAt,value
2022-09-14T00:01:51.851Z,14.30
2022-09-14T00:04:24.918Z,14.20
2022-09-14T00:06:54.601Z,14.20
2022-09-14T00:09:23.975Z,14.20
2022-09-14T00:11:51.368Z,14.10
2022-09-14T00:14:19.292Z,14.20
2022-09-14T00:16:46.293Z,14.20
2022-09-14T00:19:25.971Z,14.10
2022-09-14T00:21:55.774Z,14.10
2022-09-14T00:24:23.786Z,14.10
2022-09-14T00:26:51.629Z,14.00
2022-09-14T00:29:19.135Z,14.00
2022-09-14T00:31:54.951Z,14.00
2022-09-14T00:34:22.130Z,14.00
2022-09-14T00:36:50.377Z,14.00
2022-09-14T00:39:19.096Z,14.00
2022-09-14T00:41:48.429Z,14.00
2022-09-14T00:44:22.660Z,14.10
2022-09-14T00:46:52.471Z,14.10
2022-09-14T00:49:39.507Z,14.10
2022-09-14T00:52:26.241Z,14.20
2022-09-14T00:54:59.711Z,14.20
2022-09-14T00:57:31.438Z,14.10
2022-09-14T00:59:59.008Z,14.10
2022-09-14T01:02:28.315Z,14.10
2022-09-14T01:04:55.776Z,14.10
2022-09-14T01:07:28.685Z,14.10
2022-09-14T01:10:25.613Z,14.10
2022-09-14T01:13:19.245Z,14.10
2022-09-14T01:16:08.119Z,14.10
2022-09-14T01:18:38.572Z,14.10
2022-09-14T01:21:26.757Z,14.10
2022-09-14T01:24:21.193Z,14.10
2022-09-14T01:27:18.265Z,14.10
2022-09-14T01:29:46.719Z,14.10
2022-09-14T01:32:27.662Z,14.20
2022-09-14T01:35:20.189Z,14.20
2022-09-14T01:38:10.591Z,14.10
2022-09-14T01:40:41.657Z,14.20
2022-09-14T01:43:22.867Z,14.10
2022-09-14T01:46:00.248Z,14.10
2022-09-14T01:48:46.259Z,14.10
2022-09-14T01:51:25.121Z,14.20
2022-09-14T01:54:01.589Z,14.20
2022-09-14T01:56:36.003Z,14.20
2022-09-14T01:59:19.644Z,14.10
2022-09-14T02:01:51.439Z,14.10
2022-09-14T02:04:29.891Z,14.10
2022-09-14T02:06:59.593Z,14.10
2022-09-14T02:09:29.711Z,14.00
2022-09-14T02:12:00.547Z,14.00
2022-09-14T02:14:30.597Z,14.00
2022-09-14T02:17:04.994Z,14.10
2022-09-14T02:19:37.005Z,14.00
2022-09-14T02:22:03.777Z,14.00
2022-09-14T02:24:30.381Z,14.00
2022-09-14T02:27:09.532Z,14.00
2022-09-14T02:29:49.528Z,14.00
2022-09-14T02:32:24.805Z,14.00
2022-09-14T02:35:24.645Z,14.00
2022-09-14T02:38:29.389Z,14.00
2022-09-14T02:41:22.944Z,14.00
2022-09-14T02:44:10.758Z,13.90
2022-09-14T02:47:03.168Z,13.90
2022-09-14T02:49:43.261Z,14.00
2022-09-14T02:52:22.452Z,14.00
2022-09-14T02:55:13.951Z,13.90
2022-09-14T02:58:08.141Z,13.90
2022-09-14T03:00:44.198Z,13.80
2022-09-14T03:03:13.041Z,13.80
2022-09-14T03:05:46.431Z,13.90
2022-09-14T03:08:13.505Z,13.90
2022-09-14T03:10:42.816Z,13.90
2022-09-14T03:13:09.961Z,13.90
2022-09-14T03:15:37.232Z,13.90
2022-09-14T03:18:05.249Z,13.90
2022-09-14T03:23:14.274Z,13.90
2022-09-14T03:25:45.718Z,13.80
2022-09-14T03:28:12.757Z,13.80
2022-09-14T03:30:39.407Z,13.80
2022-09-14T03:33:06.243Z,13.80
2022-09-14T03:35:33.130Z,13.80
2022-09-14T03:38:00.849Z,13.80
2022-09-14T03:40:31.418Z,13.80
2022-09-14T03:43:00.832Z,13.80
2022-09-14T03:45:30.703Z,13.80
2022-09-14T03:47:57.287Z,13.80
2022-09-14T03:50:23.936Z,13.80
2022-09-14T03:52:50.869Z,13.80
2022-09-14T03:55:19.149Z,13.80
2022-09-14T03:57:45.740Z,13.80
2022-09-14T04:00:12.820Z,13.80
2022-09-14T04:02:42.628Z,13.80
2022-09-14T04:05:17.722Z,13.80
2022-09-14T04:07:47.741Z,13.80
2022-09-14T04:10:14.637Z,13.90
2022-09-14T04:12:41.280Z,13.90
2022-09-14T04:15:10.698Z,13.80
2022-09-14T04:17:39.856Z,13.90
2022-09-14T04:20:09.844Z,13.90
2022-09-14T04:22:36.495Z,14.00
2022-09-14T04:25:03.115Z,14.00
2022-09-14T04:27:30.927Z,14.00
2022-09-14T04:30:05.834Z,14.00
2022-09-14T04:32:35.517Z,14.00
2022-09-14T04:35:02.142Z,14.10
2022-09-14T04:37:34.083Z,14.10
2022-09-14T04:40:00.976Z,14.30
2022-09-14T04:42:33.833Z,14.40
2022-09-14T04:45:00.789Z,14.40
2022-09-14T04:47:32.167Z,14.30
2022-09-14T04:50:06.081Z,14.20
2022-09-14T04:52:32.658Z,14.10
2022-09-14T04:54:59.326Z,14.10
2022-09-14T04:57:26.336Z,14.00
2022-09-14T04:59:52.976Z,14.10
2022-09-14T05:02:19.895Z,14.10
2022-09-14T05:04:46.558Z,14.10
2022-09-14T05:07:13.156Z,14.00
2022-09-14T05:09:40.133Z,14.10
2022-09-14T05:12:07.025Z,14.10
2022-09-14T05:14:33.665Z,14.10
2022-09-14T05:17:02.912Z,14.10
2022-09-14T05:19:29.752Z,14.10
2022-09-14T05:21:59.743Z,14.10
2022-09-14T05:24:32.245Z,14.10
2022-09-14T05:29:49.008Z,14.20
2022-09-14T05:32:18.434Z,14.20
2022-09-14T05:34:48.167Z,14.20
2022-09-14T05:37:14.860Z,14.30
2022-09-14T05:39:44.106Z,14.20
2022-09-14T05:42:13.972Z,14.30
2022-09-14T05:44:40.625Z,14.40
2022-09-14T05:47:07.660Z,14.40
2022-09-14T05:49:34.407Z,14.50
2022-09-14T05:52:01.179Z,14.50
2022-09-14T05:54:31.366Z,14.60
2022-09-14T05:56:58.270Z,14.70
2022-09-14T05:59:25.282Z,14.70
2022-09-14T06:01:54.856Z,14.70
2022-09-14T06:04:24.244Z,14.70
2022-09-14T06:07:07.929Z,14.70
2022-09-14T06:09:37.953Z,14.70
2022-09-14T06:12:04.856Z,14.70
2022-09-14T06:14:31.616Z,14.80
2022-09-14T06:17:01.685Z,14.80
2022-09-14T06:19:28.448Z,14.80
2022-09-14T06:21:55.319Z,14.80
2022-09-14T06:24:25.306Z,14.80
2022-09-14T06:26:55.073Z,14.90
2022-09-14T06:29:21.745Z,14.90
2022-09-14T06:31:48.674Z,14.90
2022-09-14T06:34:17.606Z,14.90
2022-09-14T06:36:45.439Z,15.00
2022-09-14T06:39:14.689Z,15.00
2022-09-14T06:41:41.653Z,15.10
2022-09-14T06:44:11.532Z,15.10
2022-09-14T06:46:38.442Z,15.10
2022-09-14T06:49:08.340Z,15.10
2022-09-14T06:51:42.652Z,15.10
2022-09-14T06:54:11.652Z,15.10
2022-09-14T06:56:43.420Z,15.20
2022-09-14T06:59:12.411Z,15.20
2022-09-14T07:01:40.000Z,15.20
2022-09-14T07:04:07.157Z,15.20
2022-09-14T07:06:42.617Z,15.30
2022-09-14T07:09:12.802Z,15.40
2022-09-14T07:11:40.059Z,15.50
2022-09-14T07:14:07.433Z,15.50
2022-09-14T07:16:35.692Z,15.60
2022-09-14T07:19:05.203Z,15.70
2022-09-14T07:21:33.356Z,15.70
2022-09-14T07:24:00.932Z,15.70
2022-09-14T07:26:32.280Z,15.90
2022-09-14T07:29:15.133Z,15.90
2022-09-14T07:31:44.882Z,15.90
2022-09-14T07:34:20.250Z,16.00
2022-09-14T07:36:47.157Z,16.10
2022-09-14T07:39:20.098Z,16.10
2022-09-14T07:41:46.901Z,16.20
2022-09-14T07:44:19.599Z,16.20
2022-09-14T07:46:46.973Z,16.20
2022-09-14T07:49:15.563Z,16.30
2022-09-14T07:51:44.971Z,16.30
2022-09-14T07:54:13.955Z,16.30
2022-09-14T07:56:43.944Z,16.30
2022-09-14T07:59:34.608Z,16.40
2022-09-14T08:01:59.551Z,16.40
2022-09-14T08:04:36.104Z,16.50
2022-09-14T08:07:03.513Z,16.60
2022-09-14T08:09:30.430Z,16.60
2022-09-14T08:11:58.120Z,16.60
2022-09-14T08:14:27.534Z,16.70
2022-09-14T08:16:56.451Z,16.70
2022-09-14T08:19:23.673Z,16.60
2022-09-14T08:21:51.442Z,16.50
2022-09-14T08:24:20.725Z,16.50
2022-09-14T08:26:49.245Z,16.40
2022-09-14T08:29:17.471Z,16.50
2022-09-14T08:31:51.989Z,16.40
2022-09-14T08:34:20.004Z,16.40
2022-09-14T08:36:49.948Z,16.40
2022-09-14T08:39:17.711Z,16.40
2022-09-14T08:41:47.095Z,16.20
2022-09-14T08:44:35.723Z,16.20
2022-09-14T08:47:05.825Z,16.10
2022-09-14T08:49:51.687Z,16.10
2022-09-14T08:52:57.572Z,16.10
2022-09-14T08:55:35.365Z,16.10
2022-09-14T08:58:47.601Z,16.10
2022-09-14T09:01:39.478Z,16.10
2022-09-14T09:04:27.222Z,16.20
2022-09-14T09:07:05.966Z,16.20
2022-09-14T09:09:53.481Z,16.20
2022-09-14T09:12:54.097Z,16.10
2022-09-14T09:15:40.373Z,16.20
2022-09-14T09:18:22.354Z,16.30
2022-09-14T09:20:52.822Z,16.30
2022-09-14T09:26:25.859Z,16.40
2022-09-14T09:28:56.926Z,16.50
2022-09-14T09:31:36.999Z,16.50
2022-09-14T09:34:07.014Z,16.50
2022-09-14T09:36:36.971Z,16.40
2022-09-14T09:39:07.264Z,16.50
2022-09-14T09:41:45.019Z,16.60
2022-09-14T09:44:12.178Z,16.60
2022-09-14T09:46:53.217Z,16.70
2022-09-14T09:49:31.014Z,16.70
2022-09-14T09:52:25.145Z,16.90
2022-09-14T09:55:01.779Z,17.20
2022-09-14T09:57:34.620Z,17.30
2022-09-14T10:00:13.923Z,17.40
2022-09-14T10:02:41.393Z,17.40
2022-09-14T10:05:14.270Z,17.30
2022-09-14T10:07:56.938Z,17.20
2022-09-14T10:10:39.449Z,17.20
2022-09-14T10:13:38.597Z,17.10
2022-09-14T10:16:35.087Z,17.00
2022-09-14T10:19:03.358Z,16.80
2022-09-14T10:21:35.821Z,16.80
2022-09-14T10:24:06.223Z,16.70
2022-09-14T10:26:36.081Z,16.70
2022-09-14T10:29:27.604Z,16.60
2022-09-14T10:32:04.620Z,16.60
2022-09-14T10:34:31.361Z,16.80
2022-09-14T10:37:52.474Z,16.90
2022-09-14T10:40:37.251Z,17.30
2022-09-14T10:43:14.731Z,17.40
2022-09-14T10:45:53.528Z,17.50
2022-09-14T10:48:28.712Z,17.40
2022-09-14T10:51:18.822Z,17.40
2022-09-14T10:53:55.116Z,17.50
2022-09-14T10:56:28.514Z,17.60
2022-09-14T10:59:23.313Z,17.60
2022-09-14T11:02:15.357Z,17.60
2022-09-14T11:05:10.962Z,17.50
2022-09-14T11:07:51.405Z,17.50
2022-09-14T11:10:21.407Z,17.50
2022-09-14T11:13:38.912Z,17.40
2022-09-14T11:16:21.125Z,17.30
2022-09-14T11:19:25.418Z,17.10
2022-09-14T11:22:15.513Z,17.00
2022-09-14T11:25:21.493Z,16.90
2022-09-14T11:27:58.137Z,16.90
2022-09-14T11:30:47.774Z,16.90
2022-09-14T11:33:32.511Z,16.90
2022-09-14T11:36:30.735Z,16.90
2022-09-14T11:39:19.391Z,16.90
2022-09-14T11:42:07.610Z,16.90
2022-09-14T11:44:42.597Z,17.00
2022-09-14T11:47:14.236Z,17.10
2022-09-14T11:50:03.006Z,17.10
2022-09-14T11:52:32.231Z,17.10
2022-09-14T11:55:02.063Z,17.20
2022-09-14T11:57:32.729Z,17.10
2022-09-14T12:00:04.382Z,17.00
2022-09-14T12:02:37.114Z,17.00
2022-09-14T12:05:07.442Z,17.00
2022-09-14T12:07:43.783Z,17.00
2022-09-14T12:10:22.659Z,17.00
2022-09-14T12:13:21.340Z,17.00
2022-09-14T12:15:48.184Z,17.20
2022-09-14T12:18:24.227Z,17.10
2022-09-14T12:21:00.858Z,17.10
2022-09-14T12:23:44.841Z,16.90
2022-09-14T12:26:11.726Z,16.80
2022-09-14T12:28:38.851Z,16.80
2022-09-14T12:31:05.592Z,16.80
2022-09-14T12:33:32.377Z,16.80
2022-09-14T12:36:31.838Z,16.80
2022-09-14T12:39:21.965Z,16.70
2022-09-14T12:41:51.251Z,16.70
2022-09-14T12:44:42.346Z,16.80
2022-09-14T12:47:39.429Z,16.90
2022-09-14T12:50:24.958Z,16.90
2022-09-14T12:53:32.668Z,16.90
2022-09-14T12:56:09.022Z,16.90
2022-09-14T12:59:11.648Z,16.90
2022-09-14T13:01:44.960Z,17.00
2022-09-14T13:04:16.606Z,17.00
2022-09-14T13:06:47.702Z,17.00
2022-09-14T13:09:21.083Z,17.10
2022-09-14T13:11:54.606Z,17.20
2022-09-14T13:14:24.105Z,17.30
2022-09-14T13:16:52.409Z,17.30
2022-09-14T13:19:31.105Z,17.30
2022-09-14T13:22:01.045Z,17.20
2022-09-14T13:24:31.383Z,17.20
2022-09-14T13:27:01.847Z,17.30
2022-09-14T13:29:32.228Z,17.20
2022-09-14T13:32:03.760Z,17.10
2022-09-14T13:34:34.931Z,17.10
2022-09-14T13:37:02.378Z,17.10
2022-09-14T13:39:33.096Z,17.30
2022-09-14T13:42:00.320Z,17.40
2022-09-14T13:44:33.857Z,17.40
2022-09-14T13:47:12.888Z,17.40
2022-09-14T13:49:40.690Z,17.60
2022-09-14T13:52:50.155Z,17.80
2022-09-14T13:55:23.293Z,17.80
2022-09-14T13:58:11.813Z,17.70
2022-09-14T14:01:02.239Z,17.50
2022-09-14T14:03:51.796Z,17.40
2022-09-14T14:06:34.904Z,17.30
2022-09-14T14:09:10.669Z,17.30
2022-09-14T14:11:45.414Z,17.30
2022-09-14T14:14:30.139Z,17.20
2022-09-14T14:17:13.171Z,17.20
2022-09-14T14:19:46.520Z,17.20
2022-09-14T14:22:16.368Z,17.10
2022-09-14T14:25:12.199Z,17.00
2022-09-14T14:27:41.591Z,17.10
2022-09-14T14:30:18.100Z,17.10
2022-09-14T14:32:50.625Z,17.10
2022-09-14T14:35:22.693Z,17.20
2022-09-14T14:37:50.731Z,17.10
2022-09-14T14:40:21.232Z,17.00
2022-09-14T14:42:51.945Z,17.00
2022-09-14T14:45:28.846Z,17.00
2022-09-14T14:47:56.097Z,17.10
2022-09-14T14:50:27.006Z,17.10
2022-09-14T14:52:54.486Z,17.10
2022-09-14T14:55:23.053Z,17.10
2022-09-14T14:57:51.308Z,17.20
2022-09-14T15:00:26.155Z,17.20
2022-09-14T15:02:52.968Z,17.30
2022-09-14T15:05:20.342Z,17.30
2022-09-14T15:07:47.691Z,17.40
2022-09-14T15:10:16.595Z,17.40
2022-09-14T15:12:43.916Z,17.50
2022-09-14T15:15:17.382Z,17.50
2022-09-14T15:17:44.845Z,17.50
2022-09-14T15:20:12.342Z,17.50
2022-09-14T15:22:41.539Z,17.50
2022-09-14T15:25:09.233Z,17.40
2022-09-14T15:27:36.951Z,17.40
2022-09-14T15:30:05.154Z,17.40
2022-09-14T15:32:32.038Z,17.30
2022-09-14T15:34:58.817Z,17.30
2022-09-14T15:37:25.866Z,17.20
2022-09-14T15:39:55.104Z,17.20
2022-09-14T15:42:21.960Z,17.10
2022-09-14T15:44:49.082Z,17.10
2022-09-14T15:47:18.845Z,17.10
2022-09-14T15:49:46.015Z,17.00
2022-09-14T15:52:12.973Z,17.00
2022-09-14T15:54:39.937Z,17.00
2022-09-14T15:57:10.291Z,17.00
2022-09-14T15:59:40.747Z,16.90
2022-09-14T16:02:07.876Z,16.90
2022-09-14T16:04:45.796Z,16.90
2022-09-14T16:07:12.857Z,16.90
2022-09-14T16:09:41.357Z,16.80
2022-09-14T16:12:12.347Z,16.80
2022-09-14T16:14:39.245Z,16.80
2022-09-14T16:17:06.728Z,16.80
2022-09-14T16:19:33.989Z,16.70
2022-09-14T16:22:00.903Z,16.70
2022-09-14T16:24:28.130Z,16.60
2022-09-14T16:26:55.405Z,16.60
2022-09-14T16:29:24.356Z,16.70
2022-09-14T16:31:54.559Z,16.70
2022-09-14T16:34:27.658Z,16.70
2022-09-14T16:36:58.124Z,16.70
2022-09-14T16:39:27.019Z,16.70
2022-09-14T16:41:57.549Z,16.70
2022-09-14T16:44:28.458Z,16.70
2022-09-14T16:46:58.438Z,16.70
2022-09-14T16:49:27.940Z,16.70
2022-09-14T16:51:56.017Z,16.70
2022-09-14T16:54:25.754Z,16.80
2022-09-14T16:56:57.149Z,16.80
2022-09-14T16:59:26.672Z,16.80
2022-09-14T17:02:01.112Z,16.80
2022-09-14T17:04:27.896Z,16.80
2022-09-14T17:07:03.654Z,16.80
2022-09-14T17:09:36.506Z,16.80
2022-09-14T17:12:03.558Z,16.80
2022-09-14T17:14:32.571Z,16.80
2022-09-14T17:16:59.739Z,16.80
2022-09-14T17:19:27.440Z,16.70
2022-09-14T17:21:59.942Z,16.70
2022-09-14T17:24:26.845Z,16.70
2022-09-14T17:26:53.610Z,16.70
2022-09-14T17:29:20.728Z,16.70
2022-09-14T17:31:47.502Z,16.60
2022-09-14T17:34:17.747Z,16.60
2022-09-14T17:36:44.911Z,16.60
2022-09-14T17:39:12.732Z,16.60
2022-09-14T17:41:43.957Z,16.60
2022-09-14T17:44:13.255Z,16.50
2022-09-14T17:46:50.810Z,16.50
2022-09-14T17:49:19.296Z,16.50
2022-09-14T17:51:45.968Z,16.50
2022-09-14T17:54:13.266Z,16.50
2022-09-14T17:56:40.268Z,16.50
2022-09-14T17:59:16.697Z,16.60
2022-09-14T18:01:47.196Z,16.60
2022-09-14T18:04:15.993Z,16.60
2022-09-14T18:06:45.632Z,16.60
2022-09-14T18:09:16.830Z,16.50
2022-09-14T18:11:44.071Z,16.50
2022-09-14T18:14:13.124Z,16.50
2022-09-14T18:16:40.819Z,16.60
2022-09-14T18:19:07.662Z,16.60
2022-09-14T18:21:37.428Z,16.60
2022-09-14T18:24:04.360Z,16.60
2022-09-14T18:26:31.352Z,16.60
2022-09-14T18:29:01.097Z,16.60
2022-09-14T18:31:31.103Z,16.50
2022-09-14T18:34:00.823Z,16.50
2022-09-14T18:36:29.607Z,16.40
2022-09-14T18:38:58.068Z,16.40
2022-09-14T18:41:33.559Z,16.30
2022-09-14T18:44:01.708Z,16.30
2022-09-14T18:46:28.827Z,16.20
2022-09-14T18:49:00.777Z,16.20
2022-09-14T18:51:29.525Z,16.00
2022-09-14T18:54:03.110Z,16.00
2022-09-14T18:56:35.690Z,15.90
2022-09-14T18:59:04.257Z,15.80
2022-09-14T19:01:31.647Z,15.80
2022-09-14T19:04:01.690Z,15.70
2022-09-14T19:06:28.670Z,15.70
2022-09-14T19:08:58.385Z,15.70
2022-09-14T19:11:30.582Z,15.70
2022-09-14T19:14:09.420Z,15.70
2022-09-14T19:16:38.302Z,15.70
2022-09-14T19:19:06.266Z,15.80
2022-09-14T19:21:35.729Z,15.80
2022-09-14T19:24:06.596Z,15.80
2022-09-14T19:26:39.079Z,15.80
2022-09-14T19:29:10.345Z,15.80
2022-09-14T19:31:37.990Z,15.80
2022-09-14T19:34:05.360Z,15.80
2022-09-14T19:36:35.053Z,15.80
2022-09-14T19:39:03.146Z,15.70
2022-09-14T19:41:37.105Z,15.70
2022-09-14T19:44:06.670Z,15.70
2022-09-14T19:46:36.773Z,15.60
2022-09-14T19:49:03.548Z,15.60
2022-09-14T19:51:30.892Z,15.50
2022-09-14T19:53:59.692Z,15.50
2022-09-14T19:56:28.955Z,15.50
2022-09-14T19:59:04.133Z,15.50
2022-09-14T20:01:36.923Z,15.50
2022-09-14T20:04:05.397Z,15.60
2022-09-14T20:06:40.492Z,15.60
2022-09-14T20:09:12.164Z,15.60
2022-09-14T20:11:40.688Z,15.70
2022-09-14T20:14:10.648Z,15.70
2022-09-14T20:16:43.774Z,15.70
2022-09-14T20:19:23.521Z,15.70
2022-09-14T20:21:51.641Z,15.70
2022-09-14T20:24:25.768Z,15.70
2022-09-14T20:26:58.832Z,15.70
2022-09-14T20:29:28.526Z,15.80
2022-09-14T20:31:55.266Z,15.80
2022-09-14T20:34:22.509Z,15.80
2022-09-14T20:36:50.770Z,15.70
2022-09-14T20:39:19.261Z,15.70
2022-09-14T20:41:49.234Z,15.60
2022-09-14T20:44:17.339Z,15.60
2022-09-14T20:46:47.064Z,15.50
2022-09-14T20:49:17.457Z,15.50
2022-09-14T20:51:49.973Z,15.40
2022-09-14T20:54:19.928Z,15.30
2022-09-14T20:56:52.217Z,15.30
2022-09-14T20:59:22.078Z,15.30
2022-09-14T21:01:49.975Z,15.30
2022-09-14T21:04:19.282Z,15.40
2022-09-14T21:06:48.597Z,15.40
2022-09-14T21:09:18.040Z,15.40
2022-09-14T21:11:45.935Z,15.50
2022-09-14T21:14:18.163Z,15.50
2022-09-14T21:16:47.085Z,15.50
2022-09-14T21:19:21.110Z,15.50
2022-09-14T21:21:49.316Z,15.50
2022-09-14T21:27:04.751Z,15.40
2022-09-14T21:29:32.020Z,15.40
2022-09-14T21:31:58.683Z,15.40
2022-09-14T21:34:25.411Z,15.40
2022-09-14T21:36:55.411Z,15.40
2022-09-14T21:39:24.561Z,15.40
2022-09-14T21:41:59.196Z,15.40
2022-09-14T21:44:35.696Z,15.40
2022-09-14T21:47:03.056Z,15.40
2022-09-14T21:49:30.028Z,15.40
2022-09-14T21:51:59.583Z,15.40
2022-09-14T21:54:29.126Z,15.40
2022-09-14T21:56:55.888Z,15.50
2022-09-14T21:59:25.743Z,15.50
2022-09-14T22:01:55.935Z,15.50
2022-09-14T22:04:26.874Z,15.50
2022-09-14T22:06:54.414Z,15.50
2022-09-14T22:09:24.496Z,15.50
2022-09-14T22:11:51.856Z,15.50
2022-09-14T22:14:21.176Z,15.50
2022-09-14T22:16:49.147Z,15.40
2022-09-14T22:19:28.177Z,15.40
2022-09-14T22:21:58.917Z,15.40
2022-09-14T22:24:37.791Z,15.40
2022-09-14T22:27:09.764Z,15.50
2022-09-14T22:29:40.028Z,15.50
2022-09-14T22:32:11.170Z,15.50
2022-09-14T22:34:50.730Z,15.50
2022-09-14T22:37:17.686Z,15.60
2022-09-14T22:39:44.686Z,15.60
2022-09-14T22:42:12.597Z,15.70
2022-09-14T22:44:42.333Z,15.70
2022-09-14T22:47:15.521Z,15.70
2022-09-14T22:49:42.184Z,15.70
2022-09-14T22:52:08.869Z,15.80
2022-09-14T22:54:35.780Z,15.80
2022-09-14T22:57:02.449Z,15.90
2022-09-14T22:59:31.840Z,15.90
2022-09-14T23:01:58.497Z,15.90
2022-09-14T23:04:27.293Z,15.90
2022-09-14T23:06:54.246Z,16.00
2022-09-14T23:09:22.067Z,16.00
2022-09-14T23:11:51.880Z,16.00
2022-09-14T23:14:25.784Z,16.00
2022-09-14T23:16:55.849Z,16.00
2022-09-14T23:19:23.074Z,16.00
2022-09-14T23:21:50.058Z,16.00
2022-09-14T23:24:19.882Z,16.00
2022-09-14T23:26:46.811Z,16.10
2022-09-14T23:29:16.738Z,16.10
2022-09-14T23:31:44.230Z,16.10
2022-09-14T23:34:14.726Z,16.10
2022-09-14T23:36:47.718Z,16.10
2022-09-14T23:39:14.778Z,16.10
2022-09-14T23:41:41.461Z,16.10
2022-09-14T23:44:12.316Z,16.10
2022-09-14T23:46:39.278Z,16.10
2022-09-14T23:49:05.972Z,16.10
2022-09-14T23:51:33.149Z,16.10
2022-09-14T23:54:00.084Z,16.00
2022-09-14T23:56:26.834Z,16.10
2022-09-14T23:58:53.569Z,16.00
